Thunder radar more information blitzortung!


Radar de pluja more information rain snow radar


Visita la nostra xarxa de llocs de meteo:

Template documentation
and downloads

And another site



No particular awareness of the weather is required.    There are no Weather-warnings

Pagina Historial Weather Underground text

Diari Resum Desembre 08, 2017 Unitats:  Imperial    Mètric   Tant
« Previous Dia
SegĂźent Dia »
Diari Setmana Mensual Anual Personalitzada
  Maxima: Minima: Media:
Temperatura: 47.7 °F 36.5 °F 42.6 °F
Punt de rosada: 32.7 °F 23.9 °F 29.7 °F
Humitat: 69 % 55 % 60 %
Wind Speed: 8.5 mph 0 mph 2.6 mph
RĂ fegues de vent: 8.5 mph - -
Vent:- - SSE
Pression baro: 30.3 in 30.1 in -
Precipitacions: 0 in    
Historical Graphs
 
 
Dades de taula per Desembre 08, 2017
Temps Temperatura Punt de rosada Pression baro Vent Wind Speed RĂ fegues de vent Humitat Rainfall Rate (Hourly)
00:00 41.4 °F 26.8 °F 30.3 in Calm     56 % 0 in
00:01 41.2 °F 26.8 °F 30.3 in SW 2.3 mph 2.3 mph 56 % 0 in
00:05 36.5 °F 23.9 °F 30.2 in WSW 1 mph 3 mph 60 % 0 in
00:06 41 °F 26.4 °F 30.3 in SW 1.2 mph 1.2 mph 56 % 0 in
00:15 36.7 °F 24.4 °F 30.2 in WSW 2 mph 2 mph 61 % 0 in
00:25 36.7 °F 24.4 °F 30.2 in WSW 1 mph 2 mph 61 % 0 in
00:35 36.5 °F 24.3 °F 30.2 in NW 1 mph 2 mph 61 % 0 in
00:45 36.5 °F 24.3 °F 30.2 in North 2 mph 2 mph 61 % 0 in
00:55 36.7 °F 24.4 °F 30.2 in NNW 1 mph 2 mph 61 % 0 in
01:05 36.7 °F 25 °F 30.2 in Calm   2 mph 62 % 0 in
01:25 36.9 °F 25 °F 30.2 in NNE 1 mph 3 mph 62 % 0 in
01:35 36.7 °F 25 °F 30.2 in NNE 1 mph 2 mph 62 % 0 in
01:45 36.9 °F 25 °F 30.2 in NNE 1 mph 3 mph 62 % 0 in
01:55 37 °F 25.2 °F 30.2 in NE 2 mph 3 mph 62 % 0 in
02:05 37 °F 25.2 °F 30.2 in NE 2 mph 2 mph 62 % 0 in
08:06 37 °F 25.2 °F 30.2 in Calm   0.9 mph 62 % 0 in
08:21 37.4 °F 25.5 °F 30.2 in NNE 3.6 mph 3.6 mph 62 % 0 in
08:26 37.4 °F 25.5 °F 30.2 in ENE 3.5 mph 3.5 mph 62 % 0 in
08:36 37.2 °F 25.3 °F 30.2 in NW 3.8 mph 3.8 mph 62 % 0 in
08:38 37.2 °F 25.3 °F 30.2 in West 3.5 mph 3.5 mph 62 % 0 in
08:43 37.4 °F 25.5 °F 30.2 in North 4.6 mph 4.6 mph 62 % 0 in
08:48 37.6 °F 25.7 °F 30.2 in East 2.3 mph 2.3 mph 62 % 0 in
08:53 37.6 °F 25.7 °F 30.2 in NNW 3.5 mph 3.5 mph 62 % 0 in
08:58 37.8 °F 25.9 °F 30.2 in NNW 3.5 mph 3.5 mph 62 % 0 in
09:03 37.9 °F 25.7 °F 30.2 in North 2.6 mph 2.6 mph 61 % 0 in
09:08 38.1 °F 25.9 °F 30.2 in North 2.3 mph 2.3 mph 61 % 0 in
09:13 38.3 °F 26.1 °F 30.2 in NNE 4.3 mph 4.3 mph 61 % 0 in
09:18 38.3 °F 26.1 °F 30.2 in North 2.6 mph 2.6 mph 61 % 0 in
09:23 38.7 °F 26.4 °F 30.2 in NNE 2.4 mph 2.4 mph 61 % 0 in
09:28 38.8 °F 26.4 °F 30.2 in SSE 3.5 mph 3.5 mph 61 % 0 in
09:33 39.6 °F 27.1 °F 30.2 in East 2.4 mph 2.4 mph 61 % 0 in
09:38 39.7 °F 27.3 °F 30.2 in ENE 3.5 mph 3.5 mph 61 % 0 in
09:43 40.3 °F 27.9 °F 30.2 in West 3.5 mph 3.5 mph 61 % 0 in
09:48 40.3 °F 27.9 °F 30.2 in ESE 5.8 mph 5.8 mph 61 % 0 in
09:53 40.3 °F 27.5 °F 30.2 in NNE 2.6 mph 2.6 mph 60 % 0 in
09:58 40.5 °F 27.7 °F 30.2 in NNW 3.5 mph 3.5 mph 60 % 0 in
10:03 40.5 °F 27.7 °F 30.2 in NNW 2.3 mph 2.3 mph 60 % 0 in
10:08 40.6 °F 27.9 °F 30.2 in NNE 2.3 mph 2.3 mph 60 % 0 in
10:09 40.6 °F 27.9 °F 30.2 in NNE 2.4 mph 2.4 mph 60 % 0 in
10:14 41 °F 28.2 °F 30.2 in NE 2.3 mph   60 % 0 in
10:19 41.2 °F 28.2 °F 30.2 in NNW 2.3 mph 2.3 mph 60 % 0 in
10:24 41.4 °F 28.6 °F 30.2 in WNW 2.3 mph 2.3 mph 60 % 0 in
10:29 41.4 °F 28.6 °F 30.2 in ESE 3.6 mph 3.6 mph 60 % 0 in
10:34 41.5 °F 28.8 °F 30.2 in NNE 2.9 mph 2.9 mph 60 % 0 in
10:39 41.7 °F 28.4 °F 30.2 in NNE 2.4 mph 2.4 mph 59 % 0 in
10:44 41.7 °F 28.4 °F 30.2 in NE 3.5 mph 3.5 mph 59 % 0 in
10:49 41.9 °F 28.6 °F 30.2 in NNW 3.5 mph 3.5 mph 59 % 0 in
10:54 41.9 °F 28.6 °F 30.2 in WNW 4.6 mph 4.6 mph 59 % 0 in
10:59 42.1 °F 28.8 °F 30.2 in NNW 2.3 mph 2.3 mph 59 % 0 in
11:04 42.1 °F 28.8 °F 30.2 in NNW 4.6 mph 4.6 mph 59 % 0 in
11:09 42.3 °F 28.9 °F 30.2 in NNE 4.7 mph 4.7 mph 59 % 0 in
11:14 42.3 °F 28.9 °F 30.2 in NNW 5.8 mph 5.8 mph 59 % 0 in
11:19 42.4 °F 28.8 °F 30.2 in ENE 4.3 mph 4.3 mph 58 % 0 in
11:24 42.4 °F 28.8 °F 30.2 in NNW 3.5 mph 3.5 mph 58 % 0 in
11:29 42.4 °F 28.8 °F 30.2 in NNW 4.6 mph 4.6 mph 58 % 0 in
11:34 42.6 °F 28.9 °F 30.2 in South 5.8 mph 5.8 mph 58 % 0 in
11:39 42.8 °F 28.9 °F 30.2 in ENE 2.9 mph 2.9 mph 58 % 0 in
11:44 42.8 °F 28.9 °F 30.2 in SW 3.5 mph 3.6 mph 58 % 0 in
11:49 43 °F 29.1 °F 30.2 in NNE 5.8 mph 5.8 mph 58 % 0 in
11:54 43 °F 29.1 °F 30.2 in NNW 3.5 mph 3.5 mph 58 % 0 in
11:59 43 °F 28.8 °F 30.2 in ESE 3.5 mph 3.5 mph 57 % 0 in
12:04 42.8 °F 28.6 °F 30.2 in NNE 5.8 mph 5.8 mph 57 % 0 in
12:09 42.8 °F 28.6 °F 30.2 in NE 4.6 mph 4.6 mph 57 % 0 in
12:14 43 °F 28.8 °F 30.2 in West 5.8 mph 5.8 mph 57 % 0 in
12:19 43 °F 28.8 °F 30.2 in NNE 4.6 mph 4.6 mph 57 % 0 in
12:24 43 °F 28.8 °F 30.2 in ESE 5.8 mph 5.8 mph 57 % 0 in
12:29 43.2 °F 28.9 °F 30.2 in NNE 5.6 mph 5.6 mph 57 % 0 in
12:34 43.3 °F 29.1 °F 30.2 in NE 4.3 mph 4.3 mph 57 % 0 in
12:39 43.5 °F 29.3 °F 30.2 in NE 3.5 mph 3.5 mph 57 % 0 in
12:44 43.7 °F 29.5 °F 30.2 in ENE 4.6 mph 4.6 mph 57 % 0 in
12:49 43.7 °F 29.5 °F 30.2 in NNE 4.6 mph 4.6 mph 57 % 0 in
12:54 43.7 °F 29.5 °F 30.2 in WNW 2.3 mph 2.4 mph 57 % 0 in
12:59 43.9 °F 29.7 °F 30.2 in NE 2.3 mph 2.3 mph 57 % 0 in
13:04 43.9 °F 29.7 °F 30.2 in ENE 4.6 mph 4.6 mph 57 % 0 in
13:09 44.1 °F 29.8 °F 30.2 in North 5.9 mph 5.9 mph 57 % 0 in
13:14 44.2 °F 30 °F 30.2 in NNE 4.6 mph 4.6 mph 57 % 0 in
13:19 44.4 °F 30 °F 30.2 in East 3.5 mph 3.5 mph 57 % 0 in
13:24 44.6 °F 30.4 °F 30.2 in NW 3.8 mph 3.8 mph 57 % 0 in
13:29 44.6 °F 30.4 °F 30.2 in NNE 4.6 mph 4.6 mph 57 % 0 in
13:34 44.6 °F 29.8 °F 30.2 in ENE 4.6 mph 4.6 mph 56 % 0 in
13:44 44.8 °F 30 °F 30.2 in NE 8.5 mph 8.5 mph 56 % 0 in
13:49 45 °F 30.2 °F 30.2 in NE 6.9 mph 6.9 mph 56 % 0 in
13:54 45 °F 30.2 °F 30.2 in NNE 6.9 mph 6.9 mph 56 % 0 in
13:59 45.1 °F 30.4 °F 30.2 in ESE 2.6 mph 3.1 mph 56 % 0 in
14:04 45.3 °F 30.6 °F 30.2 in NW 3.5 mph 3.5 mph 56 % 0 in
14:09 45.5 °F 30.7 °F 30.2 in NW 4.6 mph 4.6 mph 56 % 0 in
14:14 45.7 °F 30.9 °F 30.1 in NNW 5.8 mph 5.8 mph 56 % 0 in
14:19 45.7 °F 30.9 °F 30.1 in ENE 2.9 mph 2.9 mph 56 % 0 in
14:24 45.7 °F 30.9 °F 30.1 in ENE 5.8 mph 5.8 mph 56 % 0 in
14:29 45.7 °F 30.9 °F 30.2 in NNE 4.9 mph 4.9 mph 56 % 0 in
14:34 45.7 °F 30.9 °F 30.2 in NNW 5.8 mph 5.8 mph 56 % 0 in
14:39 45.9 °F 30.9 °F 30.2 in ENE 5.8 mph 5.8 mph 56 % 0 in
14:44 46.2 °F 31.5 °F 30.2 in ENE 3.5 mph 3.5 mph 56 % 0 in
14:49 46.6 °F 31.6 °F 30.2 in NNW 1.2 mph 1.2 mph 56 % 0 in
14:54 46.8 °F 31.8 °F 30.2 in NNE 2.2 mph 2.2 mph 56 % 0 in
15:04 47.1 °F 32.2 °F 30.1 in ENE 4 mph 4 mph 56 % 0 in
15:09 47.1 °F 32.2 °F 30.1 in NE 4.9 mph 4.9 mph 56 % 0 in
15:14 47.1 °F 32.2 °F 30.2 in North 1.6 mph 1.6 mph 56 % 0 in
15:19 47.3 °F 32.4 °F 30.2 in NNE 5.8 mph 5.8 mph 56 % 0 in
15:24 47.3 °F 32.4 °F 30.2 in NE 8.1 mph 8.1 mph 56 % 0 in
15:29 47.5 °F 32.5 °F 30.1 in NNE 5.8 mph 5.8 mph 56 % 0 in
15:34 47.7 °F 32.7 °F 30.1 in NNE 4.6 mph 4.6 mph 56 % 0 in
15:39 47.7 °F 32.7 °F 30.1 in NNE 3.5 mph 3.5 mph 56 % 0 in
15:44 47.7 °F 32.7 °F 30.2 in NNE 4.6 mph 4.6 mph 56 % 0 in
15:49 47.7 °F 32.7 °F 30.2 in ENE 6.9 mph 6.9 mph 56 % 0 in
15:54 47.5 °F 32.2 °F 30.2 in North 3.1 mph 3.1 mph 55 % 0 in
15:59 47.5 °F 32.5 °F 30.2 in NNE 3.3 mph 3.3 mph 56 % 0 in
16:04 47.5 °F 32.5 °F 30.2 in NNW 3.5 mph 3.5 mph 56 % 0 in
16:09 47.3 °F 32.4 °F 30.2 in WNW 2.3 mph 2.3 mph 56 % 0 in
16:14 47.3 °F 32.4 °F 30.2 in North 2.3 mph 2.3 mph 56 % 0 in
16:19 47.3 °F 32.4 °F 30.2 in NNE 4 mph 4 mph 56 % 0 in
16:24 47.3 °F 32.4 °F 30.2 in NNW 2.3 mph 2.3 mph 56 % 0 in
16:29 47.5 °F 32.5 °F 30.2 in NNE 2.3 mph 2.3 mph 56 % 0 in
16:34 47.3 °F 32.4 °F 30.2 in West 2.3 mph 2.3 mph 56 % 0 in
16:39 47.3 °F 32.4 °F 30.2 in NNE 4.6 mph 4.6 mph 56 % 0 in
16:44 47.1 °F 32.2 °F 30.2 in ENE 1.4 mph 1.4 mph 56 % 0 in
16:49 46.9 °F 32 °F 30.2 in NNE 3.5 mph 3.5 mph 56 % 0 in
16:54 46.8 °F 31.8 °F 30.2 in ENE 2.3 mph 2.3 mph 56 % 0 in
16:59 46.6 °F 31.6 °F 30.2 in NNE 2.4 mph 2.4 mph 56 % 0 in
17:04 46.4 °F 31.5 °F 30.2 in NNW 2.3 mph 2.3 mph 56 % 0 in
17:09 46.4 °F 31.5 °F 30.2 in WNW 1.2 mph   56 % 0 in
17:14 46.2 °F 31.5 °F 30.2 in North 1.2 mph   56 % 0 in
17:19 46 °F 31.6 °F 30.2 in NNW 1.2 mph   57 % 0 in
17:24 45.7 °F 31.3 °F 30.2 in NNE 1.2 mph   57 % 0 in
17:29 45.5 °F 31.1 °F 30.2 in ENE 1.2 mph   57 % 0 in
17:34 45.3 °F 30.9 °F 30.2 in NE 1.2 mph 1.2 mph 57 % 0 in
17:39 45.3 °F 30.9 °F 30.2 in NNE 1.2 mph 1.2 mph 57 % 0 in
17:44 45.1 °F 31.3 °F 30.2 in NE 1.2 mph   58 % 0 in
17:49 45 °F 31.1 °F 30.2 in NNW 2.3 mph 2.3 mph 58 % 0 in
17:54 45 °F 31.1 °F 30.2 in Calm     58 % 0 in
17:59 44.6 °F 30.7 °F 30.2 in SW 2 mph 2 mph 58 % 0 in
18:04 44.4 °F 30.6 °F 30.2 in SSW 2.3 mph 2.3 mph 58 % 0 in
18:09 44.4 °F 30.6 °F 30.2 in ESE 2.3 mph 2.3 mph 58 % 0 in
18:14 44.8 °F 31.3 °F 30.2 in WSW 2.9 mph 2.9 mph 59 % 0 in
18:19 44.2 °F 30.7 °F 30.2 in Calm     59 % 0 in
18:24 44.4 °F 30.9 °F 30.2 in SW 1.2 mph 1.2 mph 59 % 0 in
18:29 44.4 °F 30.9 °F 30.2 in WNW 1.4 mph   59 % 0 in
18:34 44.6 °F 31.1 °F 30.2 in WNW 2 mph   59 % 0 in
18:39 44.6 °F 31.1 °F 30.2 in Calm     59 % 0 in
18:44 44.6 °F 31.6 °F 30.2 in WNW 1.2 mph   60 % 0 in
18:49 44.6 °F 31.6 °F 30.2 in West 1.2 mph 1.2 mph 60 % 0 in
18:54 44.6 °F 31.6 °F 30.2 in NNE 1.2 mph   60 % 0 in
18:59 44.6 °F 31.6 °F 30.2 in NE 1.4 mph 1.4 mph 60 % 0 in
19:04 44.6 °F 31.6 °F 30.2 in WNW 2.3 mph 2.3 mph 60 % 0 in
19:05 44.8 °F 31.6 °F 30.2 in NNW 1 mph 2 mph 60 % 0 in
19:10 44.8 °F 31.6 °F 30.2 in Calm     60 % 0 in
19:15 44.4 °F 31.5 °F 30.2 in WSW 1.2 mph 1.2 mph 60 % 0 in
19:25 43.7 °F 31.3 °F 30.2 in Calm   2 mph 61 % 0 in
19:30 44.2 °F 31.6 °F 30.2 in WNW 1.4 mph 1.4 mph 61 % 0 in
19:35 44.1 °F 31.5 °F 30.2 in Calm   1 mph 61 % 0 in
19:40 43.5 °F 30.9 °F 30.2 in Calm     61 % 0 in
19:45 43.2 °F 30.6 °F 30.2 in WSW 2.3 mph 2.3 mph 61 % 0 in
19:50 43.2 °F 30.6 °F 30.2 in WSW 2.3 mph 2.3 mph 61 % 0 in
19:55 43 °F 30.4 °F 30.2 in WSW 2.3 mph 2.3 mph 61 % 0 in
20:00 43 °F 30.4 °F 30.2 in Calm     61 % 0 in
20:05 42.8 °F 30.7 °F 30.2 in NNW 1.2 mph 1.2 mph 62 % 0 in
20:10 42.8 °F 30.7 °F 30.2 in North 1.2 mph 1.2 mph 62 % 0 in
20:15 42.8 °F 30.7 °F 30.2 in NW 1.2 mph   62 % 0 in
20:20 43 °F 30.7 °F 30.2 in NW 1.2 mph   62 % 0 in
20:25 43 °F 31.3 °F 30.2 in NNE 2.3 mph 2.3 mph 63 % 0 in
20:30 42.8 °F 30.7 °F 30.2 in NNE 2.9 mph 2.9 mph 62 % 0 in
20:35 41.9 °F 29.8 °F 30.2 in ESE 2.3 mph 2.3 mph 62 % 0 in
20:40 41.9 °F 30.2 °F 30.2 in NNE 2.6 mph 2.6 mph 63 % 0 in
20:45 41.9 °F 30.2 °F 30.2 in NNE 2.3 mph 2.3 mph 63 % 0 in
20:50 42.1 °F 30.4 °F 30.2 in Calm     63 % 0 in
20:55 42.1 °F 30.7 °F 30.2 in Calm     64 % 0 in
21:00 42.1 °F 30.7 °F 30.2 in North 1.2 mph 1.2 mph 64 % 0 in
21:05 41.9 °F 30.6 °F 30.2 in Calm     64 % 0 in
21:10 42.1 °F 30.7 °F 30.2 in NNE 1.2 mph 1.2 mph 64 % 0 in
21:15 42.1 °F 30.7 °F 30.2 in Calm     64 % 0 in
21:20 42.1 °F 30.7 °F 30.2 in NNW 0.9 mph   64 % 0 in
21:25 42.1 °F 30.7 °F 30.2 in Calm     64 % 0 in
21:40 41.4 °F 30 °F 30.1 in NNE 2.3 mph 2.3 mph 64 % 0 in
21:45 41.4 °F 30.6 °F 30.2 in WSW 1.2 mph 1.2 mph 65 % 0 in
21:50 41.4 °F 30.6 °F 30.2 in WSW 1.6 mph   65 % 0 in
21:55 41.5 °F 30.6 °F 30.2 in WSW 1.4 mph 1.4 mph 65 % 0 in
22:00 41.5 °F 30.6 °F 30.1 in East 1.2 mph   65 % 0 in
22:05 41.5 °F 30.6 °F 30.1 in WSW 1.2 mph 1.2 mph 65 % 0 in
22:10 41.5 °F 30.6 °F 30.1 in East 1.2 mph   65 % 0 in
22:15 41.5 °F 30.6 °F 30.1 in SW 1.2 mph 1.2 mph 65 % 0 in
22:20 41.5 °F 30.9 °F 30.1 in SW 1.6 mph   66 % 0 in
22:25 41.4 °F 30.6 °F 30.1 in Calm     65 % 0 in
22:30 41.4 °F 30.7 °F 30.1 in Calm     66 % 0 in
22:35 41.2 °F 30.4 °F 30.1 in SW 2.4 mph 2.4 mph 65 % 0 in
22:40 40.8 °F 30.4 °F 30.1 in Calm     66 % 0 in
22:45 40.6 °F 30.2 °F 30.1 in WSW 1.2 mph 1.2 mph 66 % 0 in
22:48 40.6 °F 30.2 °F 30.1 in West 1.2 mph   66 % 0 in
22:53 40.6 °F 30.2 °F 30.1 in Calm     66 % 0 in
22:58 40.5 °F 30 °F 30.1 in NW 1.6 mph 1.6 mph 66 % 0 in
23:03 40.5 °F 30 °F 30.1 in NW 1.2 mph   66 % 0 in
23:08 40.5 °F 30 °F 30.1 in Calm     66 % 0 in
23:13 40.5 °F 30.4 °F 30.1 in Calm     67 % 0 in
23:18 40.3 °F 30.2 °F 30.1 in WNW 1.2 mph   67 % 0 in
23:23 40.1 °F 29.7 °F 30.1 in WSW 1.2 mph 1.2 mph 66 % 0 in
23:28 40.3 °F 29.8 °F 30.1 in West 2.4 mph 2.4 mph 66 % 0 in
23:33 40.1 °F 29.7 °F 30.1 in WSW 2.3 mph 2.4 mph 66 % 0 in
23:38 39.6 °F 29.5 °F 30.1 in WSW 2.3 mph 2.3 mph 67 % 0 in
23:43 39.7 °F 30 °F 30.1 in NNE 2.3 mph 2.3 mph 68 % 0 in
23:48 39.7 °F 30 °F 30.1 in SW 1.2 mph   68 % 0 in
23:53 39.6 °F 30.2 °F 30.1 in SSE 2.3 mph   69 % 0 in
23:58 39.6 °F 30.2 °F 30.1 in NE 1.2 mph 1.2 mph 69 % 0 in
Meteo Sesrovires
Elogis d' Weather Underground - 3.5 mb

Guio original per  Jim McMurry - jmcmurry@mwt.net Adaptat per a la plantilla per  Wim van der Kuil - Leuven-Template.eu

Trobareu la nostra informacio del temps tambe a:

Weather Underground

AWEKAS